createdAt,value
2018-08-07T00:04:14.346Z,100460.00
2018-08-07T00:09:18.197Z,100457.00
2018-08-07T00:14:22.315Z,100458.00
2018-08-07T00:19:26.428Z,100450.00
2018-08-07T00:24:30.286Z,100452.00
2018-08-07T00:29:34.361Z,100447.00
2018-08-07T00:34:38.474Z,100448.00
2018-08-07T00:39:42.547Z,100441.00
2018-08-07T00:44:46.746Z,100444.00
2018-08-07T00:49:50.582Z,100441.00
2018-08-07T00:54:54.740Z,100441.00
2018-08-07T00:59:58.840Z,100437.00
2018-08-07T01:05:02.691Z,100433.00
2018-08-07T01:10:08.370Z,100432.00
2018-08-07T01:15:15.362Z,100428.00
2018-08-07T01:20:23.451Z,100427.00
2018-08-07T01:25:27.593Z,100422.00
2018-08-07T01:30:31.711Z,100418.00
2018-08-07T01:35:35.802Z,100417.00
2018-08-07T01:40:40.486Z,100413.00
2018-08-07T01:45:44.539Z,100410.00
2018-08-07T01:50:48.377Z,100410.00
2018-08-07T01:55:52.459Z,100410.00
2018-08-07T02:00:56.300Z,100414.00
2018-08-07T02:06:00.129Z,100417.00
2018-08-07T02:11:04.231Z,100417.00
2018-08-07T02:16:08.382Z,100421.00
2018-08-07T02:21:12.583Z,100418.00
2018-08-07T02:26:16.676Z,100423.00
2018-08-07T02:31:20.776Z,100420.00
2018-08-07T02:36:24.878Z,100417.00
2018-08-07T02:41:28.998Z,100413.00
2018-08-07T02:46:32.842Z,100412.00
2018-08-07T02:51:36.991Z,100408.00
2018-08-07T02:56:40.862Z,100406.00
2018-08-07T03:01:44.698Z,100406.00
2018-08-07T03:06:48.802Z,100417.00
2018-08-07T03:11:52.921Z,100417.00
2018-08-07T03:16:56.805Z,100410.00
2018-08-07T03:22:00.637Z,100405.00
2018-08-07T03:27:04.763Z,100397.00
2018-08-07T03:32:08.939Z,100408.00
2018-08-07T03:37:13.043Z,100414.00
2018-08-07T03:42:16.861Z,100411.00
2018-08-07T03:47:20.681Z,100411.00
2018-08-07T03:52:24.841Z,100417.00
2018-08-07T03:57:28.812Z,100410.00
2018-08-07T04:02:32.914Z,100412.00
2018-08-07T04:07:37.449Z,100418.00
2018-08-07T04:12:41.329Z,100422.00
2018-08-07T04:17:45.636Z,100430.00
2018-08-07T04:22:49.714Z,100431.00
2018-08-07T04:27:53.564Z,100430.00
2018-08-07T04:32:57.444Z,100429.00
2018-08-07T04:38:01.527Z,100431.00
2018-08-07T04:43:05.577Z,100431.00
2018-08-07T04:48:09.455Z,100433.00
2018-08-07T04:53:13.289Z,100437.00
2018-08-07T04:58:17.352Z,100426.00
2018-08-07T05:03:21.497Z,100427.00
2018-08-07T05:08:25.653Z,100432.00
2018-08-07T05:13:29.547Z,100432.00
2018-08-07T05:18:33.602Z,100432.00
2018-08-07T05:23:37.662Z,100432.00
2018-08-07T05:28:41.874Z,100437.00
2018-08-07T05:33:45.898Z,100436.00
2018-08-07T05:38:49.962Z,100431.00
2018-08-07T05:43:53.843Z,100425.00
2018-08-07T05:48:57.653Z,100427.00
2018-08-07T05:54:01.594Z,100430.00
2018-08-07T05:59:05.807Z,100432.00
2018-08-07T06:04:09.685Z,100431.00
2018-08-07T06:09:13.500Z,100427.00
2018-08-07T06:14:17.556Z,100431.00
2018-08-07T06:19:21.625Z,100428.00
2018-08-07T06:24:25.438Z,100429.00
2018-08-07T06:29:29.557Z,100433.00
2018-08-07T06:34:33.614Z,100431.00
2018-08-07T06:39:37.668Z,100433.00
2018-08-07T06:44:41.789Z,100432.00
2018-08-07T06:49:45.898Z,100438.00
2018-08-07T06:54:49.958Z,100436.00
2018-08-07T06:59:53.881Z,100426.00
2018-08-07T07:04:57.737Z,100421.00
2018-08-07T07:10:01.803Z,100417.00
2018-08-07T07:15:08.091Z,100418.00
2018-08-07T07:20:14.092Z,100401.00
2018-08-07T07:25:18.203Z,100415.00
2018-08-07T07:30:23.357Z,100410.00
2018-08-07T07:35:27.405Z,100411.00
2018-08-07T07:40:31.577Z,100408.00
2018-08-07T07:45:35.651Z,100410.00
2018-08-07T07:50:39.738Z,100404.00
2018-08-07T07:55:43.847Z,100401.00
2018-08-07T08:00:47.963Z,100401.00
2018-08-07T08:05:52.075Z,100397.00
2018-08-07T08:10:55.910Z,100399.00
2018-08-07T08:16:00.019Z,100389.00
2018-08-07T08:21:04.263Z,100389.00
2018-08-07T08:26:08.565Z,100385.00
2018-08-07T08:31:12.712Z,100382.00
2018-08-07T08:36:16.887Z,100385.00
2018-08-07T08:41:20.760Z,100381.00
2018-08-07T08:46:24.842Z,100367.00
2018-08-07T08:51:28.938Z,100370.00
2018-08-07T08:56:33.027Z,100362.00
2018-08-07T09:01:37.154Z,100363.00
2018-08-07T09:06:41.307Z,100359.00
2018-08-07T09:11:45.395Z,100355.00
2018-08-07T09:16:49.227Z,100350.00
2018-08-07T09:21:53.062Z,100351.00
2018-08-07T09:26:57.301Z,100345.00
2018-08-07T09:32:02.272Z,100344.00
2018-08-07T09:37:06.500Z,100331.00
2018-08-07T09:42:10.575Z,100322.00
2018-08-07T09:47:14.661Z,100314.00
2018-08-07T09:52:18.786Z,100303.00
2018-08-07T09:57:22.745Z,100295.00
2018-08-07T10:02:32.078Z,100286.00
2018-08-07T10:07:36.175Z,100283.00
2018-08-07T10:12:40.351Z,100269.00
2018-08-07T10:17:44.490Z,100261.00
2018-08-07T10:22:48.630Z,100265.00
2018-08-07T10:27:52.722Z,100257.00
2018-08-07T10:32:56.882Z,100249.00
2018-08-07T10:38:00.934Z,100247.00
2018-08-07T10:43:05.081Z,100238.00
2018-08-07T10:48:09.150Z,100231.00
2018-08-07T10:53:13.198Z,100223.00
2018-08-07T10:58:17.278Z,100214.00
2018-08-07T11:03:21.761Z,100214.00
2018-08-07T11:08:25.990Z,100204.00
2018-08-07T11:13:30.037Z,100202.00
2018-08-07T11:18:33.856Z,100195.00
2018-08-07T11:23:37.908Z,100186.00
2018-08-07T11:28:41.996Z,100179.00
2018-08-07T11:33:52.851Z,100180.00
2018-08-07T11:38:56.947Z,100167.00
2018-08-07T11:44:00.752Z,100165.00
2018-08-07T11:49:04.827Z,100159.00
2018-08-07T11:54:08.880Z,100153.00
2018-08-07T11:59:19.164Z,100154.00
2018-08-07T12:04:23.226Z,100155.00
2018-08-07T12:09:27.313Z,100150.00
2018-08-07T12:14:31.377Z,100145.00
2018-08-07T12:19:35.435Z,100143.00
2018-08-07T12:24:39.245Z,100142.00
2018-08-07T12:29:43.313Z,100136.00
2018-08-07T12:34:47.374Z,100138.00
2018-08-07T12:39:51.431Z,100126.00
2018-08-07T12:44:55.244Z,100133.00
2018-08-07T12:49:59.838Z,100128.00
2018-08-07T12:55:03.897Z,100111.00
2018-08-07T13:00:13.260Z,100109.00
2018-08-07T13:05:17.370Z,100106.00
2018-08-07T13:10:22.873Z,100098.00
2018-08-07T13:15:26.992Z,100093.00
2018-08-07T13:20:30.811Z,100088.00
2018-08-07T13:25:34.846Z,100096.00
2018-08-07T13:30:38.918Z,100085.00
2018-08-07T13:35:42.760Z,100081.00
2018-08-07T13:40:46.790Z,100068.00
2018-08-07T13:45:50.851Z,100074.00
2018-08-07T13:50:54.652Z,100063.00
2018-08-07T13:55:58.784Z,100066.00
2018-08-07T14:01:02.809Z,100059.00
2018-08-07T14:06:06.875Z,100057.00
2018-08-07T14:11:10.672Z,100062.00
2018-08-07T14:16:14.751Z,100063.00
2018-08-07T14:21:18.813Z,100048.00
2018-08-07T14:26:22.896Z,100042.00
2018-08-07T14:31:26.952Z,100040.00
2018-08-07T14:36:31.086Z,100040.00
2018-08-07T14:41:35.059Z,100039.00
2018-08-07T14:46:39.227Z,100033.00
2018-08-07T14:51:43.316Z,100045.00
2018-08-07T14:56:47.191Z,100045.00
2018-08-07T15:01:52.053Z,100047.00
2018-08-07T15:06:59.699Z,100047.00
2018-08-07T15:12:05.438Z,100026.00
2018-08-07T15:17:10.961Z,100034.00
2018-08-07T15:22:15.376Z,100023.00
2018-08-07T15:27:19.443Z,100017.00
2018-08-07T15:32:23.344Z,100024.00
2018-08-07T15:37:27.496Z,100023.00
2018-08-07T15:42:31.833Z,100029.00
2018-08-07T15:47:35.631Z,100025.00
2018-08-07T15:52:40.184Z,100026.00
2018-08-07T15:57:44.366Z,100026.00
2018-08-07T16:02:48.467Z,100022.00
2018-08-07T16:07:53.310Z,100022.00
2018-08-07T16:12:57.385Z,100027.00
2018-08-07T16:18:01.474Z,100022.00
2018-08-07T16:23:06.032Z,100013.00
2018-08-07T16:28:10.083Z,100019.00
2018-08-07T16:33:13.894Z,100015.00
2018-08-07T16:38:17.710Z,100007.00
2018-08-07T16:43:21.801Z,100002.00
2018-08-07T16:48:25.856Z,100002.00
2018-08-07T16:53:29.671Z,99989.00
2018-08-07T16:58:33.878Z,99999.00
2018-08-07T17:03:37.953Z,99997.00
2018-08-07T17:08:42.044Z,100002.00
2018-08-07T17:13:46.115Z,99997.00
2018-08-07T17:18:50.161Z,99998.00
2018-08-07T17:23:54.209Z,100000.00
2018-08-07T17:28:58.271Z,100001.00
2018-08-07T17:34:02.133Z,100003.00
2018-08-07T17:39:08.311Z,100010.00
2018-08-07T17:44:12.401Z,100011.00
2018-08-07T17:49:16.470Z,100012.00
2018-08-07T17:54:20.516Z,100018.00
2018-08-07T17:59:24.368Z,100015.00
2018-08-07T18:04:28.413Z,100017.00
2018-08-07T18:09:32.602Z,100016.00
2018-08-07T18:14:36.681Z,100025.00
2018-08-07T18:19:40.725Z,100027.00
2018-08-07T18:24:44.769Z,100036.00
2018-08-07T18:29:49.086Z,100042.00
2018-08-07T18:34:53.170Z,100044.00
2018-08-07T18:39:57.017Z,100054.00
2018-08-07T18:45:00.817Z,100059.00
2018-08-07T18:50:06.873Z,100075.00
2018-08-07T18:55:14.027Z,100081.00
2018-08-07T19:00:19.613Z,100081.00
2018-08-07T19:05:56.089Z,100078.00
2018-08-07T19:11:00.159Z,100073.00
2018-08-07T19:16:04.808Z,100082.00
2018-08-07T19:21:08.600Z,100077.00
2018-08-07T19:26:12.408Z,100084.00
2018-08-07T19:31:16.459Z,100076.00
2018-08-07T19:36:20.605Z,100087.00
2018-08-07T19:41:24.666Z,100091.00
2018-08-07T19:46:28.785Z,100109.00
2018-08-07T19:51:32.929Z,100108.00
2018-08-07T19:56:36.742Z,100116.00
2018-08-07T20:01:40.833Z,100119.00
2018-08-07T20:06:44.939Z,100120.00
2018-08-07T20:11:49.009Z,100130.00
2018-08-07T20:16:52.926Z,100141.00
2018-08-07T20:21:57.018Z,100128.00
2018-08-07T20:27:00.836Z,100121.00
2018-08-07T20:32:05.996Z,100126.00
2018-08-07T20:37:10.431Z,100120.00
2018-08-07T20:42:15.089Z,100120.00
2018-08-07T20:47:19.884Z,100122.00
2018-08-07T20:52:24.499Z,100110.00
2018-08-07T20:57:28.876Z,100100.00
2018-08-07T21:02:32.897Z,100105.00
2018-08-07T21:07:37.212Z,100093.00
2018-08-07T21:12:42.811Z,100087.00
2018-08-07T21:17:46.750Z,100103.00
2018-08-07T21:22:51.267Z,100108.00
2018-08-07T21:27:58.322Z,100120.00
2018-08-07T21:33:02.489Z,100092.00
2018-08-07T21:38:06.857Z,100077.00
2018-08-07T21:43:10.658Z,100061.00
2018-08-07T21:48:14.757Z,100063.00
2018-08-07T21:53:18.820Z,100077.00
2018-08-07T21:58:22.906Z,100067.00
2018-08-07T22:03:26.994Z,100060.00
2018-08-07T22:08:30.862Z,100045.00
2018-08-07T22:13:34.927Z,100036.00
2018-08-07T22:18:39.035Z,100027.00
2018-08-07T22:23:42.856Z,100032.00
2018-08-07T22:28:46.689Z,100044.00
2018-08-07T22:33:50.778Z,100039.00
2018-08-07T22:38:54.854Z,100023.00
2018-08-07T22:43:58.949Z,100031.00
2018-08-07T22:49:03.149Z,100044.00
2018-08-07T22:54:07.236Z,100009.00
2018-08-07T22:59:11.293Z,100004.00
2018-08-07T23:04:15.375Z,99993.00
2018-08-07T23:09:19.473Z,99984.00
2018-08-07T23:14:23.561Z,99971.00
2018-08-07T23:19:27.670Z,99969.00
2018-08-07T23:24:31.771Z,99971.00
2018-08-07T23:29:35.865Z,99958.00
2018-08-07T23:34:39.927Z,99959.00
2018-08-07T23:39:44.067Z,99971.00
2018-08-07T23:44:48.153Z,99965.00
2018-08-07T23:49:52.247Z,99970.00
2018-08-07T23:54:56.356Z,99969.00
